Time;durP1;ratioP1;P1;durP2;ratioP2;P2;SDS_P1;SDS_P2;PMS_P1;PMS_P2;Temp;Humidity;BMP_temperature;BMP_pressure;BME280_temperature;BME280_humidity;BME280_pressure;Samples;Min_cycle;Max_cycle;Signal;HPM_P1;HPM_P2
2022/05/06 00:02:38;;;;;;;56.58;24.30;;;;;;;6.71;50.65;101039.95;1716684;83;21754;-78
2022/05/06 00:05:44;;;;;;;61.37;26.07;;;;;;;6.70;50.57;101042.32;1716355;83;21214;-79
2022/05/06 00:08:49;;;;;;;66.92;28.17;;;;;;;6.69;51.02;101043.83;1711047;83;21219;-79
2022/05/06 00:11:55;;;;;;;59.10;26.50;;;;;;;6.62;51.49;101046.20;1762508;81;21452;-79
2022/05/06 00:15:01;;;;;;;61.00;27.13;;;;;;;6.57;51.41;101052.03;1761603;81;21727;-79
2022/05/06 00:18:08;;;;;;;54.35;24.35;;;;;;;6.56;51.43;101057.61;1762492;81;21211;-79
2022/05/06 00:21:13;;;;;;;49.83;24.57;;;;;;;6.54;51.46;101066.38;1762720;81;21194;-79
2022/05/06 00:24:18;;;;;;;59.00;24.02;;;;;;;6.53;51.33;101057.36;1761754;81;21219;-79
2022/05/06 00:27:24;;;;;;;58.30;25.90;;;;;;;6.54;51.50;101066.38;1762331;81;21743;-79
2022/05/06 00:30:29;;;;;;;58.92;27.20;;;;;;;6.52;51.31;101061.58;1762250;81;21196;-79
2022/05/06 00:33:30;;;;;;;61.88;26.97;;;;;;;6.49;51.57;101056.39;1762224;81;21204;-79
2022/05/06 00:36:36;;;;;;;68.75;28.17;;;;;;;6.47;51.53;101065.19;1761062;81;21168;-79
2022/05/06 00:39:42;;;;;;;65.72;29.10;;;;;;;6.44;51.39;101061.37;1761025;81;21228;-79
2022/05/06 00:42:50;;;;;;;80.42;32.30;;;;;;;6.43;51.08;101065.08;1762731;81;21187;-79
2022/05/06 00:45:58;;;;;;;61.25;27.48;;;;;;;6.43;51.17;101058.29;1761185;81;21243;-79
2022/05/06 00:49:04;;;;;;;70.65;29.80;;;;;;;6.39;51.30;101062.62;1762710;81;21560;-79
2022/05/06 00:52:11;;;;;;;69.87;28.45;;;;;;;6.35;51.52;101057.11;1761043;81;21204;-79
2022/05/06 00:55:17;;;;;;;65.52;26.52;;;;;;;6.29;51.52;101071.19;1761617;81;21293;-78
2022/05/06 00:58:23;;;;;;;68.60;27.37;;;;;;;6.24;51.39;101078.88;1765018;81;21184;-79
2022/05/06 01:01:29;;;;;;;69.45;27.35;;;;;;;6.21;51.59;101071.00;1765282;81;21190;-79
2022/05/06 01:04:37;;;;;;;74.15;31.42;;;;;;;6.17;51.57;101072.75;1764566;81;21213;-79
2022/05/06 01:07:45;;;;;;;64.97;28.02;;;;;;;6.14;51.69;101070.64;1764987;81;21181;-79
2022/05/06 01:10:51;;;;;;;75.62;33.90;;;;;;;6.11;51.87;101075.46;1775357;80;22178;-79
2022/05/06 01:13:58;;;;;;;62.35;28.73;;;;;;;6.06;52.09;101068.20;1777261;80;21126;-78
2022/05/06 01:17:04;;;;;;;89.30;33.92;;;;;;;5.99;52.26;101063.79;1777441;80;21181;-79
2022/05/06 01:20:09;;;;;;;80.57;32.05;;;;;;;5.95;52.51;101066.89;1776874;80;21212;-78
2022/05/06 01:23:15;;;;;;;67.92;30.70;;;;;;;5.88;52.63;101064.66;1776495;80;21236;-78
2022/05/06 01:26:22;;;;;;;79.55;33.88;;;;;;;5.83;52.69;101066.90;1774752;80;21670;-79
2022/05/06 01:29:30;;;;;;;78.17;33.48;;;;;;;5.79;52.99;101068.14;1774865;80;21181;-80
2022/05/06 01:32:36;;;;;;;64.95;28.12;;;;;;;5.73;53.20;101065.91;1776483;80;21737;-80
2022/05/06 01:35:53;;;;;;;77.80;32.85;;;;;;;5.68;53.63;101074.92;1775958;80;21194;-80
2022/05/06 01:39:03;;;;;;;74.32;30.30;;;;;;;5.60;53.70;101072.86;1776258;80;21894;-79
2022/05/06 01:42:12;;;;;;;74.77;33.85;;;;;;;5.57;53.74;101073.60;1776831;80;21197;-79
2022/05/06 01:45:22;;;;;;;71.57;32.05;;;;;;;5.54;54.00;101077.91;1775779;80;21272;-80
2022/05/06 01:48:28;;;;;;;83.33;37.03;;;;;;;5.50;54.27;101079.14;1776429;80;21189;-80
2022/05/06 01:51:34;;;;;;;69.30;33.08;;;;;;;5.44;54.14;101089.16;1777344;80;21217;-79
2022/05/06 01:54:35;;;;;;;87.20;35.88;;;;;;;5.42;54.59;101080.28;1776716;80;21189;-80
2022/05/06 01:57:42;;;;;;;79.37;35.88;;;;;;;5.37;54.50;101081.52;1788750;80;21591;-80
2022/05/06 02:00:48;;;;;;;87.92;33.95;;;;;;;5.34;54.71;101092.61;1710402;84;21205;-79
2022/05/06 02:07:20;;;;;;;76.97;34.70;;;;;;;5.26;55.40;101092.84;1710593;84;21733;-80
2022/05/06 02:10:26;;;;;;;90.17;33.88;;;;;;;5.20;55.54;101092.85;1738918;82;21216;-80
2022/05/06 02:13:33;;;;;;;82.00;32.78;;;;;;;5.15;55.49;101095.08;1746914;82;21177;-80
2022/05/06 02:16:56;;;;;;;68.40;29.25;;;;;;;5.13;55.67;101095.20;1726633;83;21308;-80
2022/05/06 02:20:06;;;;;;;;;;;;;;;5.11;55.96;101103.08;1754618;79;21169;-80
2022/05/06 02:23:14;;;;;;;84.95;34.95;;;;;;;5.06;56.21;101104.80;1793897;79;20185;-79
2022/05/06 02:26:27;;;;;;;70.08;31.27;;;;;;;5.04;56.22;101111.34;1699652;84;21650;-80
2022/05/06 02:29:32;;;;;;;86.70;36.23;;;;;;;5.03;56.29;101119.08;1762569;81;21184;-80
2022/05/06 02:36:02;;;;;;;73.83;30.60;;;;;;;5.21;55.68;101117.63;1762155;81;21185;-79
2022/05/06 02:39:07;;;;;;;74.03;31.68;;;;;;;5.36;54.96;101125.92;1762340;81;21260;-80
2022/05/06 02:42:15;;;;;;;77.85;32.65;;;;;;;5.52;54.65;101128.25;1762478;81;21292;-79
2022/05/06 02:45:22;;;;;;;82.05;31.15;;;;;;;5.63;54.23;101125.52;1762505;81;21237;-80
2022/05/06 02:48:26;;;;;;;80.22;33.48;;;;;;;5.70;54.29;101135.41;1761829;81;21178;-80
2022/05/06 02:51:34;;;;;;;68.15;29.45;;;;;;;5.79;54.01;101143.30;1762485;81;21252;-80
2022/05/06 02:54:40;;;;;;;69.55;30.05;;;;;;;5.88;53.48;101146.13;1762670;81;21790;-80
2022/05/06 02:57:45;;;;;;;61.23;27.62;;;;;;;6.04;53.44;101148.95;1794841;80;21197;-80
2022/05/06 03:00:52;;;;;;;60.65;28.50;;;;;;;6.22;52.87;101143.36;1727064;83;21685;-80
2022/05/06 03:03:58;;;;;;;69.30;31.00;;;;;;;6.41;52.33;101153.55;1726943;83;21177;-80
2022/05/06 03:07:08;;;;;;;70.97;30.45;;;;;;;6.59;51.52;101151.99;1725870;83;21246;-80
2022/05/06 03:10:16;;;;;;;75.22;32.53;;;;;;;6.75;51.07;101152.90;1788396;80;21195;-79
2022/05/06 03:13:22;;;;;;;60.60;27.32;;;;;;;6.86;50.43;101148.75;1762712;81;21520;-79
2022/05/06 03:16:30;;;;;;;69.87;27.93;;;;;;;6.95;50.60;101155.76;1761132;81;21333;-79
2022/05/06 03:19:35;;;;;;;74.75;29.40;;;;;;;6.99;50.47;101167.60;1762469;81;21215;-79
2022/05/06 03:22:50;;;;;;;63.08;27.13;;;;;;;7.03;50.50;101169.56;1762806;81;21234;-79
2022/05/06 03:25:55;;;;;;;65.65;28.35;;;;;;;7.08;51.07;101172.75;1762439;81;21754;-79
2022/05/06 03:29:02;;;;;;;64.92;28.52;;;;;;;7.21;51.10;101178.00;1762570;81;21179;-79
2022/05/06 03:32:07;;;;;;;53.17;25.37;;;;;;;7.38;51.01;101178.73;1762716;81;21267;-79
2022/05/06 03:35:14;;;;;;;58.45;25.50;;;;;;;7.58;50.15;101172.91;1762923;81;21689;-79
2022/05/06 03:38:19;;;;;;;60.30;25.32;;;;;;;7.81;49.73;101179.89;1761434;81;21262;-79
2022/05/06 03:41:27;;;;;;;52.27;23.22;;;;;;;7.98;49.33;101179.72;1761535;81;21631;-79
2022/05/06 03:44:34;;;;;;;61.63;25.57;;;;;;;8.21;48.64;101189.90;1762732;81;21187;-79
2022/05/06 03:47:40;;;;;;;59.00;25.72;;;;;;;8.32;48.45;101189.77;1761516;81;21266;-79
2022/05/06 03:54:10;;;;;;;53.35;23.20;;;;;;;8.45;48.81;101199.95;1762656;81;21151;-79
2022/05/06 03:57:17;;;;;;;65.92;25.25;;;;;;;8.53;48.30;101201.98;1761315;81;21834;-79
2022/05/06 04:00:23;;;;;;;54.65;24.12;;;;;;;8.60;47.71;101194.08;1761314;81;21195;-79
2022/05/06 04:03:28;;;;;;;62.95;23.75;;;;;;;8.62;47.78;101205.22;1762473;81;21262;-79
2022/05/06 04:06:35;;;;;;;49.77;22.45;;;;;;;8.62;47.75;101201.12;1763390;81;21143;-79
2022/05/06 04:09:41;;;;;;;63.95;24.25;;;;;;;8.62;48.01;101195.67;1763247;81;21151;-79
2022/05/06 04:12:49;;;;;;;50.65;23.70;;;;;;;8.68;48.44;101200.55;1762767;81;21188;-79
2022/05/06 04:15:55;;;;;;;58.10;22.37;;;;;;;8.73;47.10;101204.22;1727341;83;21247;-79
2022/05/06 04:19:01;;;;;;;51.10;20.95;;;;;;;8.76;47.24;101207.17;1707932;84;21243;-78
2022/05/06 04:25:31;;;;;;;46.85;18.85;;;;;;;8.91;47.61;101203.01;1727077;83;21246;-79
2022/05/06 04:28:38;;;;;;;50.58;20.15;;;;;;;9.04;47.38;101208.18;1725933;83;21219;-79
2022/05/06 04:31:44;;;;;;;48.02;20.23;;;;;;;9.12;46.79;101211.88;1727587;83;21195;-79
2022/05/06 04:34:50;;;;;;;53.42;21.75;;;;;;;9.19;47.42;101213.04;1726807;83;21235;-79
2022/05/06 04:37:55;;;;;;;54.75;21.97;;;;;;;9.31;46.51;101211.50;1726688;83;21696;-79
2022/05/06 04:41:06;;;;;;;46.25;22.05;;;;;;;9.41;46.59;101209.14;1726518;83;21597;-79
2022/05/06 04:44:05;;;;;;;56.90;20.57;;;;;;;9.50;46.45;101213.33;1727720;83;21198;-78
2022/05/06 04:47:11;;;;;;;56.35;20.43;;;;;;;9.55;46.56;101225.56;1726882;83;21192;-79
2022/05/06 04:50:18;;;;;;;50.55;18.92;;;;;;;9.70;46.61;101227.32;1726060;83;21238;-78
2022/05/06 04:53:23;;;;;;;38.05;16.42;;;;;;;9.84;45.72;101225.98;1726869;83;21223;-79
2022/05/06 04:56:30;;;;;;;44.15;17.50;;;;;;;9.96;46.01;101224.25;1726936;83;21219;-79
2022/05/06 04:59:38;;;;;;;45.30;17.80;;;;;;;10.06;45.77;101230.19;1727475;83;21211;-79
2022/05/06 05:02:44;;;;;;;40.92;16.67;;;;;;;10.19;45.33;101226.61;1726018;83;21211;-79
2022/05/06 05:05:50;;;;;;;46.98;17.27;;;;;;;10.28;44.90;101224.36;1726377;83;21294;-79
2022/05/06 05:08:50;;;;;;;38.60;17.02;;;;;;;10.40;44.78;101227.25;1726354;83;21270;-79
2022/05/06 05:11:56;;;;;;;39.55;17.37;;;;;;;10.56;45.72;101224.34;1726911;83;21188;-79
2022/05/06 05:15:04;;;;;;;35.92;14.07;;;;;;;10.71;44.99;101222.80;1724301;82;21290;-79
2022/05/06 05:18:02;;;;;;;34.65;15.55;;;;;;;10.84;43.88;101222.42;1762414;81;21257;-79
2022/05/06 05:20:56;;;;;;;36.53;14.28;;;;;;;10.89;45.02;101222.30;1761376;81;21241;-79
2022/05/06 05:23:42;;;;;;;42.40;14.65;;;;;;;10.99;42.94;101223.08;1762536;81;21490;-79
2022/05/06 05:26:35;;;;;;;35.92;13.85;;;;;;;11.07;42.49;101220.08;1764228;81;21178;-79
2022/05/06 05:29:21;;;;;;;25.85;13.10;;;;;;;11.20;42.19;101227.38;1763868;81;21218;-79
2022/05/06 05:32:15;;;;;;;31.77;13.28;;;;;;;11.31;42.49;101227.13;1764990;81;21247;-79
2022/05/06 05:35:19;;;;;;;;;;;;;;;11.40;41.90;101231.64;1767300;81;21230;-79
2022/05/06 05:38:27;;;;;;;29.48;11.97;;;;;;;11.42;43.01;101221.38;1763222;81;20232;-79
2022/05/06 05:41:33;;;;;;;26.42;11.53;;;;;;;11.48;42.40;101227.61;1764943;81;21175;-79
2022/05/06 05:48:20;;;;;;;32.00;11.80;;;;;;;11.74;42.75;101233.59;1766520;81;21876;-79
2022/05/06 05:51:27;;;;;;;28.73;11.45;;;;;;;11.92;42.13;101235.80;1766495;81;21205;-79
2022/05/06 05:54:34;;;;;;;24.98;10.43;;;;;;;12.09;41.63;101234.50;1766571;81;21197;-79
2022/05/06 05:57:42;;;;;;;24.43;9.50;;;;;;;12.16;41.25;101225.46;1780480;80;21217;-79
2022/05/06 06:00:48;;;;;;;21.27;7.35;;;;;;;12.36;42.14;101233.42;1766799;81;21182;-79
2022/05/06 06:03:58;;;;;;;20.82;6.75;;;;;;;12.48;40.38;101230.73;1766859;81;21693;-80
2022/05/06 06:07:06;;;;;;;14.90;6.97;;;;;;;12.53;39.49;101230.58;1767073;81;21186;-80
2022/05/06 06:10:15;;;;;;;28.60;11.00;;;;;;;12.67;38.93;101237.31;1765763;81;21222;-80
2022/05/06 06:13:27;;;;;;;20.12;8.75;;;;;;;12.80;41.08;101232.72;1767186;81;21166;-79
2022/05/06 06:16:33;;;;;;;31.00;8.38;;;;;;;12.94;40.44;101238.92;1770408;80;21802;-79
2022/05/06 06:19:39;;;;;;;15.03;6.83;;;;;;;13.05;40.36;101235.83;1777659;79;21246;-79
2022/05/06 06:22:45;;;;;;;17.10;5.92;;;;;;;13.16;40.03;101234.63;1778269;80;21780;-79
2022/05/06 06:25:51;;;;;;;20.57;6.97;;;;;;;13.29;39.66;101236.91;1778374;80;21848;-79
2022/05/06 06:28:58;;;;;;;12.30;5.47;;;;;;;13.36;39.36;101226.97;1782487;79;21210;-80
2022/05/06 06:32:04;;;;;;;9.88;4.83;;;;;;;13.41;38.49;101228.67;1800528;79;21197;-80
2022/05/06 06:35:10;;;;;;;14.07;5.05;;;;;;;13.46;38.30;101235.89;1784526;79;21167;-79
2022/05/06 06:38:18;;;;;;;12.88;4.85;;;;;;;13.56;38.26;101239.83;1790745;79;21188;-79
2022/05/06 06:41:24;;;;;;;11.50;5.17;;;;;;;13.66;37.81;101239.64;1777995;79;21205;-79
2022/05/06 06:44:30;;;;;;;9.48;3.65;;;;;;;13.72;36.84;101235.67;1782722;79;21220;-79
2022/05/06 06:47:48;;;;;;;7.70;3.80;;;;;;;13.82;36.06;101240.97;1778438;80;21302;-79
2022/05/06 06:50:49;;;;;;;17.00;4.42;;;;;;;13.91;35.23;101248.17;1776395;80;21248;-80
2022/05/06 06:53:44;;;;;;;8.85;3.55;;;;;;;13.98;36.24;101239.58;1776859;80;22428;-79
2022/05/06 06:56:30;;;;;;;6.53;2.83;;;;;;;14.00;36.24;101241.62;1777620;80;21232;-79
2022/05/06 06:59:22;;;;;;;3.60;2.22;;;;;;;14.10;34.64;101244.69;1777350;80;21231;-80
2022/05/06 07:02:28;;;;;;;10.18;3.83;;;;;;;14.18;33.72;101239.17;1777472;80;21179;-79
2022/05/06 07:05:27;;;;;;;7.97;3.30;;;;;;;14.20;36.03;101233.81;1777768;80;21237;-80
2022/05/06 07:11:58;;;;;;;9.93;3.30;;;;;;;14.21;34.34;101237.42;1796262;79;21841;-80
2022/05/06 07:15:03;;;;;;;12.75;3.55;;;;;;;14.21;34.32;101238.80;1726364;82;21733;-80
2022/05/06 07:18:09;;;;;;;9.65;2.40;;;;;;;14.20;35.03;101250.84;1721180;82;21756;-80
2022/05/06 07:21:15;;;;;;;4.37;2.42;;;;;;;14.19;33.06;101234.86;1708192;84;21149;-80
2022/05/06 07:24:20;;;;;;;3.67;1.87;;;;;;;14.19;32.04;101248.61;1698069;83;21240;-79
2022/05/06 07:27:26;;;;;;;5.58;2.37;;;;;;;14.21;32.52;101236.93;1699250;83;21727;-79
2022/05/06 07:30:33;;;;;;;5.53;2.00;;;;;;;14.30;34.28;101248.25;1688214;84;21189;-79
2022/05/06 07:33:39;;;;;;;7.67;2.95;;;;;;;14.37;32.17;101244.25;1705458;83;21189;-79
2022/05/06 07:36:44;;;;;;;7.70;2.60;;;;;;;14.39;31.74;101239.41;1703611;83;21158;-79
2022/05/06 07:39:52;;;;;;;6.83;2.45;;;;;;;14.43;32.29;101239.40;1705382;83;21237;-79
2022/05/06 07:42:59;;;;;;;5.58;1.72;;;;;;;14.47;32.66;101232.50;1700210;84;21172;-79
2022/05/06 07:46:04;;;;;;;7.17;2.70;;;;;;;14.45;30.44;101246.13;1699664;84;21200;-80
2022/05/06 07:49:12;;;;;;;7.10;2.42;;;;;;;14.43;32.41;101233.04;1689900;85;21291;-79
2022/05/06 07:52:18;;;;;;;4.78;2.55;;;;;;;14.43;34.21;101238.55;1700724;84;21185;-80
2022/05/06 07:55:24;;;;;;;7.17;2.47;;;;;;;14.41;33.45;101240.11;1706318;83;21203;-80
2022/05/06 07:58:30;;;;;;;5.25;2.70;;;;;;;14.42;33.66;101218.42;1707608;84;21185;-80
2022/05/06 08:05:01;;;;;;;6.45;2.83;;;;;;;14.71;33.58;101233.44;1691512;85;21190;-80
2022/05/06 08:08:07;;;;;;;5.28;3.00;;;;;;;14.77;34.31;101228.58;1696850;84;21194;-80
2022/05/06 08:11:14;;;;;;;7.70;2.47;;;;;;;14.86;36.19;101238.51;1695631;83;21211;-80
2022/05/06 08:14:22;;;;;;;5.47;2.30;;;;;;;14.91;33.69;101240.72;1690050;85;21247;-79
2022/05/06 08:17:28;;;;;;;5.42;2.40;;;;;;;14.88;33.75;101232.84;1689736;85;21191;-80
2022/05/06 08:20:34;;;;;;;3.90;2.10;;;;;;;14.84;32.67;101225.45;1679543;85;21205;-80
2022/05/06 08:23:40;;;;;;;3.83;1.87;;;;;;;14.88;33.46;101230.94;1677609;85;21178;-80
2022/05/06 08:26:47;;;;;;;5.85;2.00;;;;;;;14.87;32.47;101226.97;1676972;85;21201;-80
2022/05/06 08:29:53;;;;;;;7.00;2.00;;;;;;;14.85;32.21;101229.06;1681149;85;21214;-80
2022/05/06 08:33:00;;;;;;;3.47;1.57;;;;;;;14.92;33.76;101230.91;1689297;85;21776;-80
2022/05/06 08:36:08;;;;;;;3.35;1.55;;;;;;;15.02;31.78;101225.16;1688811;85;21225;-80
2022/05/06 08:39:14;;;;;;;4.55;1.60;;;;;;;15.02;32.00;101235.66;1689126;85;21245;-80
2022/05/06 08:42:26;;;;;;;2.25;1.60;;;;;;;15.00;31.11;101222.57;1688624;85;21252;-79
2022/05/06 08:52:19;;;;;;;3.17;1.70;;;;;;;15.24;32.45;101235.83;1689286;85;21820;-79
2022/05/06 08:55:25;;;;;;;3.77;1.50;;;;;;;15.15;31.24;101225.41;1688392;85;21813;-80
2022/05/06 08:58:37;;;;;;;7.45;1.60;;;;;;;15.09;31.57;101221.47;1688251;85;21201;-79
2022/05/06 09:01:39;;;;;;;11.05;1.60;;;;;;;15.12;31.79;101219.41;1689068;85;21303;-80
2022/05/06 09:04:49;;;;;;;3.12;1.30;;;;;;;15.18;32.11;101225.55;1688333;85;21285;-80
2022/05/06 09:08:05;;;;;;;3.08;1.75;;;;;;;15.21;32.29;101219.69;1689310;85;21194;-79
2022/05/06 09:11:14;;;;;;;2.15;1.20;;;;;;;15.25;33.90;101233.44;1689389;85;21387;-79
2022/05/06 09:17:53;;;;;;;2.92;1.45;;;;;;;15.21;32.40;101237.07;1640698;87;21232;-80
2022/05/06 09:21:00;;;;;;;1.65;1.42;;;;;;;15.24;33.95;101222.05;1651707;85;21373;-80
2022/05/06 09:24:25;;;;;;;3.45;1.60;;;;;;;15.31;34.24;101219.75;1685779;83;21177;-79
2022/05/06 09:27:30;;;;;;;2.58;1.50;;;;;;;15.36;31.92;101223.34;1739351;82;21188;-79
2022/05/06 09:30:36;;;;;;;2.40;1.32;;;;;;;15.33;32.46;101220.94;1704376;83;21187;-80
2022/05/06 09:33:40;;;;;;;5.53;1.82;;;;;;;15.32;32.71;101215.09;1711238;84;21187;-80
2022/05/06 09:36:33;;;;;;;2.12;1.37;;;;;;;15.36;33.36;101216.45;1724464;83;21241;-79
2022/05/06 09:39:39;;;;;;;4.10;1.60;;;;;;;15.34;32.35;101212.51;1711288;83;21201;-80
2022/05/06 09:42:46;;;;;;;2.05;1.30;;;;;;;15.35;31.61;101207.84;1723473;83;21233;-80
2022/05/06 09:45:53;;;;;;;2.42;1.37;;;;;;;15.36;31.75;101211.45;1711354;84;21244;-79
2022/05/06 09:49:04;;;;;;;2.35;1.62;;;;;;;15.42;33.40;101209.33;1724465;83;21246;-80
2022/05/06 09:52:20;;;;;;;9.48;2.05;;;;;;;15.48;31.54;101206.70;1710700;83;21833;-79
2022/05/06 09:55:27;;;;;;;3.45;1.70;;;;;;;15.49;31.50;101213.06;1724443;83;21209;-79
2022/05/06 09:58:33;;;;;;;2.37;1.70;;;;;;;15.45;30.75;101205.69;1711159;84;21261;-79
2022/05/06 10:01:32;;;;;;;2.62;1.40;;;;;;;15.45;32.56;101205.69;1724518;83;21170;-79
2022/05/06 10:04:39;;;;;;;4.00;1.52;;;;;;;15.50;31.30;101200.46;1710783;84;21339;-80
2022/05/06 10:07:49;;;;;;;7.05;1.50;;;;;;;15.56;32.38;101195.56;1724407;83;21194;-80
2022/05/06 10:11:12;;;;;;;9.23;2.10;;;;;;;15.66;32.21;101206.88;1709989;84;21189;-79
2022/05/06 10:14:17;;;;;;;3.42;1.80;;;;;;;15.69;31.24;101204.61;1724387;83;21206;-79
2022/05/06 10:17:50;;;;;;;3.98;1.72;;;;;;;15.72;32.06;101199.26;1710062;84;21215;-79
2022/05/06 10:20:56;;;;;;;12.53;1.72;;;;;;;15.69;32.90;101200.48;1720139;83;21250;-79
2022/05/06 10:24:04;;;;;;;2.10;1.40;;;;;;;15.71;32.01;101189.25;1702099;84;21886;-79
2022/05/06 10:27:13;;;;;;;2.85;1.87;;;;;;;15.76;31.72;101200.56;1766681;81;21241;-79
2022/05/06 10:34:15;;;;;;;4.40;1.72;;;;;;;15.74;31.48;101201.30;1764889;81;21241;-79
2022/05/06 10:37:23;;;;;;;6.10;1.72;;;;;;;15.72;31.30;101185.47;1765865;81;21197;-79
2022/05/06 10:40:34;;;;;;;5.20;1.40;;;;;;;15.77;30.06;101194.88;1764966;81;21225;-79
2022/05/06 10:43:55;;;;;;;3.83;1.37;;;;;;;15.80;29.06;101193.63;1765964;81;21193;-79
2022/05/06 10:47:03;;;;;;;1.75;1.30;;;;;;;15.80;29.73;101181.22;1767128;81;21166;-79
2022/05/06 10:50:11;;;;;;;3.37;1.37;;;;;;;15.85;29.77;101184.27;1767142;81;21197;-79
2022/05/06 10:53:19;;;;;;;5.47;1.50;;;;;;;15.89;28.81;101182.84;1766029;81;21182;-79
2022/05/06 10:56:24;;;;;;;6.05;1.57;;;;;;;15.87;30.89;101186.33;1758818;81;21233;-79
2022/05/06 10:59:33;;;;;;;3.42;1.45;;;;;;;15.94;30.89;101179.52;1767938;81;21178;-79
2022/05/06 11:02:44;;;;;;;3.90;1.32;;;;;;;15.93;29.49;101173.14;1767155;81;21182;-79
2022/05/06 11:05:52;;;;;;;4.42;1.52;;;;;;;15.95;31.86;101176.58;1766604;81;21193;-79
2022/05/06 11:08:57;;;;;;;4.72;1.80;;;;;;;16.04;29.85;101171.30;1766981;81;21214;-79
2022/05/06 11:12:04;;;;;;;1.62;0.98;;;;;;;16.09;31.24;101177.59;1765942;81;21327;-80
2022/05/06 11:15:15;;;;;;;5.42;1.50;;;;;;;16.13;30.04;101157.38;1767022;81;21165;-80
2022/05/06 11:18:21;;;;;;;4.33;1.10;;;;;;;16.21;31.43;101166.94;1767136;81;21182;-80
2022/05/06 11:21:31;;;;;;;3.10;1.47;;;;;;;16.25;29.67;101161.38;1768752;80;21786;-80
2022/05/06 11:24:40;;;;;;;1.67;1.00;;;;;;;16.25;30.43;101163.60;1711164;84;21181;-80
2022/05/06 11:27:47;;;;;;;3.40;1.42;;;;;;;16.25;30.74;101156.70;1724121;83;21206;-80
2022/05/06 11:30:56;;;;;;;2.02;1.10;;;;;;;16.28;31.19;101155.47;1742386;81;21756;-81
2022/05/06 11:34:06;;;;;;;2.35;1.37;;;;;;;16.31;31.28;101158.68;1718506;82;21226;-79
2022/05/06 11:37:14;;;;;;;2.55;1.10;;;;;;;16.32;30.71;101142.44;1725975;83;21242;-79
2022/05/06 11:40:36;;;;;;;3.42;1.30;;;;;;;16.35;30.02;101151.73;1741741;82;21222;-79
2022/05/06 11:43:41;;;;;;;6.65;1.40;;;;;;;16.30;28.03;101139.03;1748119;81;21181;-79
2022/05/06 11:50:10;;;;;;;4.25;1.45;;;;;;;16.21;29.65;101142.95;1741981;82;21213;-79
2022/05/06 11:53:11;;;;;;;8.63;1.40;;;;;;;16.22;28.08;101138.28;1753511;82;21249;-79
2022/05/06 11:56:04;;;;;;;1.80;1.30;;;;;;;16.21;28.85;101130.53;1742046;82;21244;-79
2022/05/06 11:58:51;;;;;;;4.90;1.42;;;;;;;16.23;29.24;101131.21;1753943;82;21193;-79
2022/05/06 12:01:43;;;;;;;1.55;1.10;;;;;;;16.27;29.04;101138.03;1742539;82;21233;-79
2022/05/06 12:04:50;;;;;;;1.70;1.10;;;;;;;16.26;29.24;101121.67;1753767;82;21264;-79
2022/05/06 12:07:57;;;;;;;7.87;2.25;;;;;;;16.28;30.40;101119.06;1742026;82;21216;-80
2022/05/06 12:11:14;;;;;;;3.55;1.52;;;;;;;16.34;30.79;101125.70;1752432;82;21220;-79
2022/05/06 12:14:22;;;;;;;2.70;1.60;;;;;;;16.41;30.50;101118.34;1741125;82;21257;-79
2022/05/06 12:17:30;;;;;;;2.72;1.37;;;;;;;16.40;31.07;101117.16;1726751;82;21189;-79
2022/05/06 12:20:48;;;;;;;6.40;1.40;;;;;;;16.38;29.07;101110.47;1719858;83;22161;-79
2022/05/06 12:24:06;;;;;;;4.40;1.50;;;;;;;16.35;30.93;101114.45;1706142;83;21197;-80
2022/05/06 12:27:13;;;;;;;4.97;1.30;;;;;;;16.33;27.88;101115.19;1703216;84;21237;-80
2022/05/06 12:33:29;;;;;;;5.05;1.47;;;;;;;16.21;27.44;101108.45;1690114;85;21231;-79
2022/05/06 12:36:36;;;;;;;6.12;1.30;;;;;;;16.17;29.62;101109.03;1690935;85;21195;-79
2022/05/06 12:39:48;;;;;;;7.85;1.90;;;;;;;16.23;27.82;101100.84;1689393;85;21224;-79
2022/05/06 12:42:52;;;;;;;10.18;1.85;;;;;;;16.22;28.21;101096.88;1669231;85;21298;-79
2022/05/06 12:46:04;;;;;;;6.45;1.62;;;;;;;16.19;30.09;101092.62;1689500;85;21645;-84
2022/05/06 12:52:36;;;;;;;4.90;1.50;;;;;;;16.23;28.15;101093.95;1690981;85;21270;-83
2022/05/06 12:55:44;;;;;;;5.17;1.30;;;;;;;16.22;29.07;101105.16;1690512;85;21220;-83
2022/05/06 12:58:49;;;;;;;3.60;1.55;;;;;;;16.25;28.87;101107.55;1690348;85;21787;-83
2022/05/06 13:01:55;;;;;;;7.70;1.42;;;;;;;16.20;27.26;101098.99;1690772;85;21211;-83
2022/05/06 13:05:01;;;;;;;4.50;1.50;;;;;;;16.16;27.51;101092.14;1690104;85;21183;-83
2022/05/06 13:08:07;;;;;;;3.60;1.62;;;;;;;16.12;29.83;101088.91;1690315;85;21238;-83
2022/05/06 13:11:12;;;;;;;4.97;1.47;;;;;;;16.16;29.36;101089.38;1691743;85;21151;-83
2022/05/06 13:14:21;;;;;;;3.27;1.45;;;;;;;16.19;28.55;101097.29;1690531;85;21745;-79
2022/05/06 13:17:25;;;;;;;3.65;1.50;;;;;;;16.20;30.24;101083.81;1690205;85;21207;-79
2022/05/06 13:20:31;;;;;;;2.30;1.57;;;;;;;16.16;27.77;101085.25;1691738;85;21168;-80
2022/05/06 13:23:37;;;;;;;7.35;1.95;;;;;;;16.11;30.10;101098.25;1690722;85;21223;-84
2022/05/06 13:26:44;;;;;;;3.40;1.80;;;;;;;16.09;28.07;101091.55;1691846;85;21148;-84
2022/05/06 13:29:51;;;;;;;6.25;1.35;;;;;;;16.07;28.58;101097.77;1669901;85;21219;-84
2022/05/06 13:32:58;;;;;;;4.65;1.82;;;;;;;16.07;29.25;101088.11;1706780;82;21284;-83
2022/05/06 13:36:04;;;;;;;6.95;1.77;;;;;;;16.05;28.51;101092.98;1744670;82;21750;-83
2022/05/06 13:39:10;;;;;;;1.95;1.20;;;;;;;16.03;28.60;101084.55;1709361;82;21276;-83
2022/05/06 13:42:15;;;;;;;2.75;1.47;;;;;;;16.00;30.13;101086.34;1745455;82;21236;-84
2022/05/06 13:45:21;;;;;;;3.60;1.72;;;;;;;16.01;28.77;101081.14;1745197;82;21213;-84
2022/05/06 13:48:26;;;;;;;4.92;1.60;;;;;;;16.04;27.66;101084.87;1745438;82;21157;-83
2022/05/06 13:51:32;;;;;;;5.53;1.92;;;;;;;16.03;29.45;101085.41;1744201;82;21228;-84
2022/05/06 13:54:38;;;;;;;4.25;1.90;;;;;;;16.00;28.87;101089.95;1745799;82;21201;-84
2022/05/06 14:01:08;;;;;;;7.62;2.00;;;;;;;15.93;28.19;101080.72;1745907;82;21692;-83
2022/05/06 14:04:14;;;;;;;2.05;1.40;;;;;;;15.93;29.64;101086.77;1745628;82;21201;-83
2022/05/06 14:07:14;;;;;;;3.95;1.52;;;;;;;15.93;30.73;101093.66;1744311;82;21248;-83
2022/05/06 14:10:19;;;;;;;4.37;1.77;;;;;;;15.91;29.79;101075.93;1745501;82;21247;-83
2022/05/06 14:13:25;;;;;;;2.72;1.75;;;;;;;15.90;31.14;101070.05;1744424;81;21216;-83
2022/05/06 14:16:33;;;;;;;2.52;1.42;;;;;;;15.92;30.72;101077.63;1744151;82;21755;-83
2022/05/06 14:19:38;;;;;;;12.15;2.27;;;;;;;15.91;30.00;101075.08;1744072;82;21245;-83
2022/05/06 14:22:44;;;;;;;2.90;1.70;;;;;;;15.88;29.29;101074.92;1743679;82;21196;-83
2022/05/06 14:25:51;;;;;;;4.60;1.65;;;;;;;15.84;30.25;101077.73;1743401;82;21196;-83
2022/05/06 14:28:58;;;;;;;4.95;1.90;;;;;;;15.80;29.98;101071.73;1745575;82;21238;-84
2022/05/06 14:32:10;;;;;;;5.42;1.62;;;;;;;15.79;29.02;101067.80;1747510;80;21248;-83
2022/05/06 14:35:20;;;;;;;4.17;1.77;;;;;;;15.83;30.93;101074.65;1724690;83;21778;-79
2022/05/06 14:38:24;;;;;;;4.90;1.70;;;;;;;15.80;29.50;101081.39;1727340;83;21193;-79
2022/05/06 14:41:30;;;;;;;5.67;1.60;;;;;;;15.76;29.43;101066.30;1727468;83;21208;-79
2022/05/06 14:44:36;;;;;;;4.40;1.65;;;;;;;15.73;29.57;101068.58;1730208;83;21739;-79
2022/05/06 14:47:41;;;;;;;5.03;1.62;;;;;;;15.70;30.20;101067.57;1710370;83;21244;-79
2022/05/06 14:50:46;;;;;;;4.15;1.70;;;;;;;15.67;30.83;101063.84;1703648;84;21197;-79
2022/05/06 14:53:52;;;;;;;4.12;1.70;;;;;;;15.65;31.23;101066.77;1704243;84;21236;-79
2022/05/06 14:56:59;;;;;;;8.88;1.50;;;;;;;15.63;30.76;101068.84;1703820;84;21245;-79
2022/05/06 15:00:04;;;;;;;4.90;1.80;;;;;;;15.61;30.92;101070.91;1705505;84;21201;-79
2022/05/06 15:03:10;;;;;;;13.83;2.50;;;;;;;15.58;30.63;101077.69;1704528;84;21296;-79
2022/05/06 15:06:16;;;;;;;3.25;1.62;;;;;;;15.55;31.07;101079.43;1705028;84;21221;-79
2022/05/06 15:09:19;;;;;;;6.40;2.20;;;;;;;15.50;31.28;101075.54;1707504;83;21841;-79
2022/05/06 15:12:23;;;;;;;4.35;1.50;;;;;;;15.45;30.63;101065.08;1734251;83;21739;-79
2022/05/06 15:15:28;;;;;;;5.15;1.77;;;;;;;15.43;30.69;101064.43;1734206;83;21213;-79